Gaylord, MI

2:56 AM EDT on August 05, 2015 (GMT -0400)
GAYLORD ALPINE CENTER | | Change Station
CLOSE
Current Station
Personal Weather Station
Location: Gaylord, MI
Elevation: 1385 ft
Nearby Weather Stations

Elev 1385 ft 45.04 °N, 84.67 °W | Updated 1 minute ago

Mostly Cloudy
Mostly Cloudy
54.3 °F
Feels Like 54.3 °F
N
2.7
Wind Variable Wind from WSW

Today
High -- | Low -- °F
--% Chance of Precip.
Yesterday
High -- | Low -- °F
Precip. -- in
6:28 AM 9:00 PM
Waning Gibbous, 70% visible
Pressure 30.03 in
Visibility 10.0 miles
Clouds Mostly Cloudy 2700 ft
Dew Point 50 °F
Humidity 85%
Rainfall 0.00 in
Snow Depth Not available.
UV 0 out of 12
Pollen 6.40 out of 12
Air Quality Not available.
Flu Activity Not available.
METAR KGLR 050653Z AUTO 00000KT 10SM BKN027 13/12 A3003 RMK AO2 SLP169 T01330122

More Conditions Fewer Conditions

Pressure 30.03 in
Visibility 10.0 miles
Clouds Mostly Cloudy 2700 ft
Dew Point 50 °F
Humidity 85%
Rainfall 0.00 in
Snow Depth Not available.
UV 0 out of 12
Pollen 6.40 out of 12
Air Quality Not available.
Flu Activity Not available.
METAR KGLR 050653Z AUTO 00000KT 10SM BKN027 13/12 A3003 RMK AO2 SLP169 T01330122

More Conditions Fewer Conditions

Nowcast | as of 1:00 am EDT on August 5, 2015

At 2 am...mostly cloudy. Isolated showers. Temperature 54. Light winds. At 4 am...partly cloudy. Temperature 52. Northwest winds 5 mph. At 6 am...mostly clear. Temperature 51. Northwest winds 5 mph. At 8 am...mostly clear. Temperature 53. Northwest winds 6 mph.

×

10-Day Weather Forecast

×

Almanac

Astronomy

Aug. 05, 2015 Rise Set
Actual Time
Civil Twilight
Nautical Twilight
Astronomical Twilight
Moon
Length of Visible Light
Length of Day
Tomorrow will be .
, % of the Moon is Illuminated

Today's Extremes

State Highs State Lows

Community

WunderPhotos

Upload Photos

1,844,105 photos uploaded!

WunderBlogs® & News

Nearby

Air Quality

  Air Quality AQ Index Pollutant
Not available.

Snow Depth

Station Depth Elevation

Earthquake Activity

City Distance Mag. Time & Date
Minimum magnitude displayed is 2.5.

Coastal Water Temperatures

Place Temperature

Stations

Nearby Weather Stations

Station Location Temp. Windchill Dew Point Humidity Wind Precip. Elev Updated Type